Terminal Aerodrome Forecast
Issued by NWS Sterling, VA

Current Version | Previous Version | Graphics & Text | Print | Product List | Glossary On
Versions: 1 2 3 4 5 6 7 8 9 10 11 12 13 14 15 16 17 18 19 20 21 22 23
855
FTUS41 KLWX 240900 AAA
TAFIAD
TAF AMD
KIAD 240900Z 2409/2512 17005KT P6SM SCT200
     FM241100 18003KT 5SM BR BKN150
     FM241300 18006KT P6SM BKN250
     FM241700 18012G20KT P6SM SCT250
     FM250300 17009KT P6SM BKN035
     FM250600 17009KT P6SM BKN025=

USA.gov is the U.S. government's official web portal to all federal, state and local government web resources and services.